sensor_id;sensor_type;location;lat;lon;timestamp;pressure;altitude;pressure_sealevel;temperature;humidity
61488;BME280;47351;53.326;-6.298;2022-12-20T00:01:51;99421.52;;;7.73;76.56
61488;BME280;47351;53.326;-6.298;2022-12-20T00:04:42;99432.45;;;7.72;76.66
61488;BME280;47351;53.326;-6.298;2022-12-20T00:07:33;99437.95;;;7.70;76.73
61488;BME280;47351;53.326;-6.298;2022-12-20T00:10:23;99443.17;;;7.68;76.78
61488;BME280;47351;53.326;-6.298;2022-12-20T00:13:14;99435.79;;;7.69;77.05
61488;BME280;47351;53.326;-6.298;2022-12-20T00:16:06;99437.05;;;7.71;77.08
61488;BME280;47351;53.326;-6.298;2022-12-20T00:18:58;99438.28;;;7.71;77.09
61488;BME280;47351;53.326;-6.298;2022-12-20T00:21:49;99438.08;;;7.71;77.14
61488;BME280;47351;53.326;-6.298;2022-12-20T00:24:39;99432.33;;;7.70;77.10
61488;BME280;47351;53.326;-6.298;2022-12-20T00:27:30;99439.85;;;7.68;77.03
61488;BME280;47351;53.326;-6.298;2022-12-20T00:30:20;99434.77;;;7.67;77.08
61488;BME280;47351;53.326;-6.298;2022-12-20T00:33:11;99428.90;;;7.67;77.06
61488;BME280;47351;53.326;-6.298;2022-12-20T00:36:02;99435.50;;;7.65;77.10
61488;BME280;47351;53.326;-6.298;2022-12-20T00:38:53;99437.64;;;7.65;77.20
61488;BME280;47351;53.326;-6.298;2022-12-20T00:41:44;99434.71;;;7.66;77.28
61488;BME280;47351;53.326;-6.298;2022-12-20T00:44:35;99428.90;;;7.67;77.38
61488;BME280;47351;53.326;-6.298;2022-12-20T00:47:26;99432.02;;;7.70;77.52
61488;BME280;47351;53.326;-6.298;2022-12-20T00:50:16;99431.12;;;7.73;77.56
61488;BME280;47351;53.326;-6.298;2022-12-20T00:53:07;99430.83;;;7.77;77.62
61488;BME280;47351;53.326;-6.298;2022-12-20T00:55:58;99420.40;;;7.80;77.67
61488;BME280;47351;53.326;-6.298;2022-12-20T00:58:49;99425.41;;;7.81;77.57
61488;BME280;47351;53.326;-6.298;2022-12-20T01:01:41;99424.70;;;7.79;77.54
61488;BME280;47351;53.326;-6.298;2022-12-20T01:04:32;99431.80;;;7.76;77.70
61488;BME280;47351;53.326;-6.298;2022-12-20T01:07:23;99435.34;;;7.73;77.81
61488;BME280;47351;53.326;-6.298;2022-12-20T01:10:14;99440.27;;;7.72;77.79
61488;BME280;47351;53.326;-6.298;2022-12-20T01:13:05;99441.40;;;7.73;77.78
61488;BME280;47351;53.326;-6.298;2022-12-20T01:15:55;99444.09;;;7.76;77.91
61488;BME280;47351;53.326;-6.298;2022-12-20T01:18:46;99443.65;;;7.80;77.92
61488;BME280;47351;53.326;-6.298;2022-12-20T01:21:37;99444.89;;;7.84;77.94
61488;BME280;47351;53.326;-6.298;2022-12-20T01:24:32;99438.11;;;7.91;77.98
61488;BME280;47351;53.326;-6.298;2022-12-20T01:27:23;99440.77;;;7.95;78.00
61488;BME280;47351;53.326;-6.298;2022-12-20T01:30:14;99440.33;;;7.97;78.09
61488;BME280;47351;53.326;-6.298;2022-12-20T01:33:04;99443.95;;;7.98;78.10
61488;BME280;47351;53.326;-6.298;2022-12-20T01:35:55;99444.19;;;7.97;78.15
61488;BME280;47351;53.326;-6.298;2022-12-20T01:38:46;99443.05;;;7.96;78.22
61488;BME280;47351;53.326;-6.298;2022-12-20T01:41:37;99440.74;;;7.95;78.36
61488;BME280;47351;53.326;-6.298;2022-12-20T01:47:36;99441.66;;;8.01;78.37
61488;BME280;47351;53.326;-6.298;2022-12-20T01:50:27;99446.58;;;8.02;78.31
61488;BME280;47351;53.326;-6.298;2022-12-20T01:53:18;99446.05;;;8.01;78.40
61488;BME280;47351;53.326;-6.298;2022-12-20T01:56:10;99449.01;;;8.02;78.39
61488;BME280;47351;53.326;-6.298;2022-12-20T01:59:01;99454.05;;;8.03;78.33
61488;BME280;47351;53.326;-6.298;2022-12-20T02:01:52;99457.15;;;8.04;78.42
61488;BME280;47351;53.326;-6.298;2022-12-20T02:04:42;99458.16;;;8.03;78.38
61488;BME280;47351;53.326;-6.298;2022-12-20T02:07:33;99456.74;;;7.99;78.32
61488;BME280;47351;53.326;-6.298;2022-12-20T02:10:26;99455.32;;;7.97;78.34
61488;BME280;47351;53.326;-6.298;2022-12-20T02:13:23;99452.84;;;7.93;78.42
61488;BME280;47351;53.326;-6.298;2022-12-20T02:16:17;99453.87;;;7.90;78.55
61488;BME280;47351;53.326;-6.298;2022-12-20T02:19:14;99448.16;;;7.85;78.58
61488;BME280;47351;53.326;-6.298;2022-12-20T02:22:14;99446.39;;;7.84;78.62
61488;BME280;47351;53.326;-6.298;2022-12-20T02:25:12;99452.02;;;7.83;78.65
61488;BME280;47351;53.326;-6.298;2022-12-20T02:28:07;99450.07;;;7.81;78.81
61488;BME280;47351;53.326;-6.298;2022-12-20T02:31:07;99447.27;;;7.81;78.85
61488;BME280;47351;53.326;-6.298;2022-12-20T02:33:59;99448.27;;;7.81;78.74
61488;BME280;47351;53.326;-6.298;2022-12-20T02:36:51;99442.23;;;7.80;78.75
61488;BME280;47351;53.326;-6.298;2022-12-20T02:39:42;99447.39;;;7.77;78.72
61488;BME280;47351;53.326;-6.298;2022-12-20T02:42:35;99446.64;;;7.74;78.88
61488;BME280;47351;53.326;-6.298;2022-12-20T02:45:26;99450.31;;;7.71;78.91
61488;BME280;47351;53.326;-6.298;2022-12-20T02:48:22;99447.64;;;7.70;78.90
61488;BME280;47351;53.326;-6.298;2022-12-20T02:51:14;99450.05;;;7.67;78.99
61488;BME280;47351;53.326;-6.298;2022-12-20T02:54:07;99450.33;;;7.66;79.24
61488;BME280;47351;53.326;-6.298;2022-12-20T02:56:59;99452.40;;;7.68;79.28
61488;BME280;47351;53.326;-6.298;2022-12-20T02:59:53;99451.74;;;7.68;79.24
61488;BME280;47351;53.326;-6.298;2022-12-20T03:02:45;99452.14;;;7.66;79.27
61488;BME280;47351;53.326;-6.298;2022-12-20T03:05:55;99452.55;;;7.60;79.40
61488;BME280;47351;53.326;-6.298;2022-12-20T03:08:46;99452.96;;;7.57;79.47
61488;BME280;47351;53.326;-6.298;2022-12-20T03:11:36;99451.10;;;7.54;79.60
61488;BME280;47351;53.326;-6.298;2022-12-20T03:14:27;99448.80;;;7.53;79.68
61488;BME280;47351;53.326;-6.298;2022-12-20T03:17:18;99457.43;;;7.52;79.62
61488;BME280;47351;53.326;-6.298;2022-12-20T03:20:09;99457.02;;;7.51;79.73
61488;BME280;47351;53.326;-6.298;2022-12-20T03:23:00;99461.03;;;7.50;79.78
61488;BME280;47351;53.326;-6.298;2022-12-20T03:25:51;99457.88;;;7.46;79.79
61488;BME280;47351;53.326;-6.298;2022-12-20T03:29:01;99454.20;;;7.42;79.97
61488;BME280;47351;53.326;-6.298;2022-12-20T03:31:52;99453.33;;;7.40;79.91
61488;BME280;47351;53.326;-6.298;2022-12-20T03:34:43;99455.52;;;7.37;80.00
61488;BME280;47351;53.326;-6.298;2022-12-20T03:37:34;99454.87;;;7.35;80.16
61488;BME280;47351;53.326;-6.298;2022-12-20T03:40:25;99452.27;;;7.35;80.33
61488;BME280;47351;53.326;-6.298;2022-12-20T03:43:16;99455.46;;;7.36;80.33
61488;BME280;47351;53.326;-6.298;2022-12-20T03:46:07;99465.14;;;7.36;80.47
61488;BME280;47351;53.326;-6.298;2022-12-20T03:48:59;99464.64;;;7.38;80.60
61488;BME280;47351;53.326;-6.298;2022-12-20T03:51:50;99460.61;;;7.39;80.58
61488;BME280;47351;53.326;-6.298;2022-12-20T03:54:40;99464.44;;;7.39;80.56
61488;BME280;47351;53.326;-6.298;2022-12-20T03:57:37;99466.84;;;7.38;80.56
61488;BME280;47351;53.326;-6.298;2022-12-20T04:00:38;99467.70;;;7.37;80.78
61488;BME280;47351;53.326;-6.298;2022-12-20T04:03:55;99468.44;;;7.37;80.90
61488;BME280;47351;53.326;-6.298;2022-12-20T04:06:46;99470.59;;;7.37;80.82
61488;BME280;47351;53.326;-6.298;2022-12-20T04:09:37;99472.56;;;7.37;80.89
61488;BME280;47351;53.326;-6.298;2022-12-20T04:12:32;99478.61;;;7.36;81.08
61488;BME280;47351;53.326;-6.298;2022-12-20T04:15:25;99478.62;;;7.35;81.02
61488;BME280;47351;53.326;-6.298;2022-12-20T04:18:15;99478.27;;;7.31;81.07
61488;BME280;47351;53.326;-6.298;2022-12-20T04:21:08;99487.21;;;7.29;81.36
61488;BME280;47351;53.326;-6.298;2022-12-20T04:24:02;99482.55;;;7.30;81.58
61488;BME280;47351;53.326;-6.298;2022-12-20T04:27:16;99485.80;;;7.31;81.53
61488;BME280;47351;53.326;-6.298;2022-12-20T04:30:09;99487.68;;;7.30;81.51
61488;BME280;47351;53.326;-6.298;2022-12-20T04:32:59;99492.77;;;7.29;81.52
61488;BME280;47351;53.326;-6.298;2022-12-20T04:35:51;99491.50;;;7.27;81.68
61488;BME280;47351;53.326;-6.298;2022-12-20T04:38:43;99489.54;;;7.26;81.83
61488;BME280;47351;53.326;-6.298;2022-12-20T04:41:34;99492.28;;;7.26;81.83
61488;BME280;47351;53.326;-6.298;2022-12-20T04:44:28;99488.44;;;7.25;81.79
61488;BME280;47351;53.326;-6.298;2022-12-20T04:47:20;99497.06;;;7.24;81.73
61488;BME280;47351;53.326;-6.298;2022-12-20T04:50:12;99498.90;;;7.21;81.68
61488;BME280;47351;53.326;-6.298;2022-12-20T04:53:03;99497.23;;;7.20;81.70
61488;BME280;47351;53.326;-6.298;2022-12-20T04:56:12;99506.58;;;7.19;81.51
61488;BME280;47351;53.326;-6.298;2022-12-20T04:59:03;99512.56;;;7.16;81.54
61488;BME280;47351;53.326;-6.298;2022-12-20T05:01:54;99511.00;;;7.13;81.39
61488;BME280;47351;53.326;-6.298;2022-12-20T05:05:24;99513.39;;;7.09;81.31
61488;BME280;47351;53.326;-6.298;2022-12-20T05:08:16;99517.78;;;7.08;81.35
61488;BME280;47351;53.326;-6.298;2022-12-20T05:11:08;99527.66;;;7.08;81.39
61488;BME280;47351;53.326;-6.298;2022-12-20T05:13:58;99529.05;;;7.10;81.38
61488;BME280;47351;53.326;-6.298;2022-12-20T05:16:49;99527.20;;;7.14;81.40
61488;BME280;47351;53.326;-6.298;2022-12-20T05:19:40;99530.63;;;7.18;81.36
61488;BME280;47351;53.326;-6.298;2022-12-20T05:22:31;99535.20;;;7.22;81.32
61488;BME280;47351;53.326;-6.298;2022-12-20T05:25:39;99533.57;;;7.26;81.24
61488;BME280;47351;53.326;-6.298;2022-12-20T05:28:50;99532.03;;;7.27;81.10
61488;BME280;47351;53.326;-6.298;2022-12-20T05:31:42;99533.33;;;7.26;81.17
61488;BME280;47351;53.326;-6.298;2022-12-20T05:34:33;99530.23;;;7.26;81.34
61488;BME280;47351;53.326;-6.298;2022-12-20T05:37:23;99530.21;;;7.24;81.46
61488;BME280;47351;53.326;-6.298;2022-12-20T05:40:16;99532.84;;;7.21;81.56
61488;BME280;47351;53.326;-6.298;2022-12-20T05:43:07;99533.93;;;7.16;81.55
61488;BME280;47351;53.326;-6.298;2022-12-20T05:46:02;99532.55;;;7.11;81.73
61488;BME280;47351;53.326;-6.298;2022-12-20T05:49:01;99531.69;;;7.05;81.83
61488;BME280;47351;53.326;-6.298;2022-12-20T05:51:53;99533.05;;;7.01;81.94
61488;BME280;47351;53.326;-6.298;2022-12-20T05:54:46;99540.45;;;6.98;82.09
61488;BME280;47351;53.326;-6.298;2022-12-20T05:57:39;99545.14;;;6.97;82.15
61488;BME280;47351;53.326;-6.298;2022-12-20T06:00:37;99552.30;;;6.97;82.16
61488;BME280;47351;53.326;-6.298;2022-12-20T06:03:29;99553.25;;;6.96;82.15
61488;BME280;47351;53.326;-6.298;2022-12-20T06:06:21;99550.05;;;6.96;82.20
61488;BME280;47351;53.326;-6.298;2022-12-20T06:09:11;99550.52;;;6.95;82.11
61488;BME280;47351;53.326;-6.298;2022-12-20T06:12:06;99557.61;;;6.92;82.02
61488;BME280;47351;53.326;-6.298;2022-12-20T06:14:57;99560.98;;;6.90;82.00
61488;BME280;47351;53.326;-6.298;2022-12-20T06:17:47;99556.83;;;6.89;81.99
61488;BME280;47351;53.326;-6.298;2022-12-20T06:20:38;99554.56;;;6.87;81.88
61488;BME280;47351;53.326;-6.298;2022-12-20T06:23:31;99556.23;;;6.85;81.88
61488;BME280;47351;53.326;-6.298;2022-12-20T06:26:28;99550.54;;;6.83;81.77
61488;BME280;47351;53.326;-6.298;2022-12-20T06:29:25;99548.77;;;6.82;81.69
61488;BME280;47351;53.326;-6.298;2022-12-20T06:32:23;99551.18;;;6.79;81.60
61488;BME280;47351;53.326;-6.298;2022-12-20T06:35:14;99558.66;;;6.77;81.63
61488;BME280;47351;53.326;-6.298;2022-12-20T06:38:06;99555.77;;;6.76;81.61
61488;BME280;47351;53.326;-6.298;2022-12-20T06:40:57;99560.23;;;6.73;81.62
61488;BME280;47351;53.326;-6.298;2022-12-20T06:43:47;99562.41;;;6.71;81.59
61488;BME280;47351;53.326;-6.298;2022-12-20T06:46:38;99561.50;;;6.70;81.58
61488;BME280;47351;53.326;-6.298;2022-12-20T06:49:29;99558.05;;;6.69;81.64
61488;BME280;47351;53.326;-6.298;2022-12-20T06:52:20;99558.56;;;6.68;81.67
61488;BME280;47351;53.326;-6.298;2022-12-20T06:55:15;99563.05;;;6.66;81.87
61488;BME280;47351;53.326;-6.298;2022-12-20T06:58:06;99570.13;;;6.66;82.11
61488;BME280;47351;53.326;-6.298;2022-12-20T07:00:58;99569.27;;;6.65;82.32
61488;BME280;47351;53.326;-6.298;2022-12-20T07:03:49;99576.19;;;6.65;82.55
61488;BME280;47351;53.326;-6.298;2022-12-20T07:06:40;99583.13;;;6.67;82.66
61488;BME280;47351;53.326;-6.298;2022-12-20T07:09:31;99585.79;;;6.67;82.63
61488;BME280;47351;53.326;-6.298;2022-12-20T07:12:21;99588.76;;;6.66;82.61
61488;BME280;47351;53.326;-6.298;2022-12-20T07:15:12;99593.86;;;6.64;82.67
61488;BME280;47351;53.326;-6.298;2022-12-20T07:18:03;99595.16;;;6.64;82.73
61488;BME280;47351;53.326;-6.298;2022-12-20T07:20:53;99598.03;;;6.62;82.68
61488;BME280;47351;53.326;-6.298;2022-12-20T07:23:44;99605.83;;;6.58;82.71
61488;BME280;47351;53.326;-6.298;2022-12-20T07:26:35;99599.95;;;6.57;82.59
61488;BME280;47351;53.326;-6.298;2022-12-20T07:29:25;99601.10;;;6.56;82.69
61488;BME280;47351;53.326;-6.298;2022-12-20T07:32:16;99604.58;;;6.55;82.70
61488;BME280;47351;53.326;-6.298;2022-12-20T07:35:08;99603.29;;;6.54;82.61
61488;BME280;47351;53.326;-6.298;2022-12-20T07:37:58;99603.92;;;6.53;82.58
61488;BME280;47351;53.326;-6.298;2022-12-20T07:40:49;99608.48;;;6.50;82.59
61488;BME280;47351;53.326;-6.298;2022-12-20T07:43:40;99614.88;;;6.46;82.60
61488;BME280;47351;53.326;-6.298;2022-12-20T07:46:31;99617.14;;;6.43;82.62
61488;BME280;47351;53.326;-6.298;2022-12-20T07:49:22;99622.67;;;6.41;82.64
61488;BME280;47351;53.326;-6.298;2022-12-20T07:52:12;99624.82;;;6.39;82.58
61488;BME280;47351;53.326;-6.298;2022-12-20T07:55:04;99628.57;;;6.39;82.49
61488;BME280;47351;53.326;-6.298;2022-12-20T07:57:56;99631.20;;;6.39;82.30
61488;BME280;47351;53.326;-6.298;2022-12-20T08:00:51;99635.33;;;6.39;82.22
61488;BME280;47351;53.326;-6.298;2022-12-20T08:03:42;99642.58;;;6.35;82.07
61488;BME280;47351;53.326;-6.298;2022-12-20T08:06:33;99639.30;;;6.33;82.01
61488;BME280;47351;53.326;-6.298;2022-12-20T08:09:26;99643.82;;;6.32;81.91
61488;BME280;47351;53.326;-6.298;2022-12-20T08:12:19;99643.05;;;6.31;81.97
61488;BME280;47351;53.326;-6.298;2022-12-20T08:15:10;99648.74;;;6.29;81.89
61488;BME280;47351;53.326;-6.298;2022-12-20T08:18:00;99653.31;;;6.25;81.86
61488;BME280;47351;53.326;-6.298;2022-12-20T08:20:51;99657.05;;;6.23;81.75
61488;BME280;47351;53.326;-6.298;2022-12-20T08:23:42;99668.73;;;6.22;81.70
61488;BME280;47351;53.326;-6.298;2022-12-20T08:26:32;99674.98;;;6.21;81.51
61488;BME280;47351;53.326;-6.298;2022-12-20T08:29:26;99672.72;;;6.21;81.59
61488;BME280;47351;53.326;-6.298;2022-12-20T08:32:16;99678.84;;;6.22;81.52
61488;BME280;47351;53.326;-6.298;2022-12-20T08:35:07;99683.52;;;6.23;81.31
61488;BME280;47351;53.326;-6.298;2022-12-20T08:37:58;99683.63;;;6.22;81.10
61488;BME280;47351;53.326;-6.298;2022-12-20T08:40:49;99685.27;;;6.21;80.98
61488;BME280;47351;53.326;-6.298;2022-12-20T08:43:39;99689.55;;;6.21;80.82
61488;BME280;47351;53.326;-6.298;2022-12-20T08:46:30;99693.77;;;6.21;80.63
61488;BME280;47351;53.326;-6.298;2022-12-20T08:49:20;99695.67;;;6.22;80.50
61488;BME280;47351;53.326;-6.298;2022-12-20T08:52:11;99697.57;;;6.22;80.30
61488;BME280;47351;53.326;-6.298;2022-12-20T08:55:01;99703.73;;;6.23;80.08
61488;BME280;47351;53.326;-6.298;2022-12-20T08:57:53;99705.33;;;6.25;79.93
61488;BME280;47351;53.326;-6.298;2022-12-20T09:00:44;99709.13;;;6.25;79.75
61488;BME280;47351;53.326;-6.298;2022-12-20T09:03:35;99711.85;;;6.25;79.34
61488;BME280;47351;53.326;-6.298;2022-12-20T09:06:26;99705.80;;;6.25;79.10
61488;BME280;47351;53.326;-6.298;2022-12-20T09:09:16;99708.91;;;6.24;78.87
61488;BME280;47351;53.326;-6.298;2022-12-20T09:12:07;99716.69;;;6.24;78.59
61488;BME280;47351;53.326;-6.298;2022-12-20T09:14:57;99716.70;;;6.26;78.33
61488;BME280;47351;53.326;-6.298;2022-12-20T09:17:48;99720.41;;;6.28;78.02
61488;BME280;47351;53.326;-6.298;2022-12-20T09:20:42;99720.20;;;6.30;77.80
61488;BME280;47351;53.326;-6.298;2022-12-20T09:23:33;99717.81;;;6.31;77.51
61488;BME280;47351;53.326;-6.298;2022-12-20T09:26:24;99714.65;;;6.32;77.39
61488;BME280;47351;53.326;-6.298;2022-12-20T09:29:15;99716.89;;;6.33;77.10
61488;BME280;47351;53.326;-6.298;2022-12-20T09:32:15;99720.67;;;6.32;76.94
61488;BME280;47351;53.326;-6.298;2022-12-20T09:35:05;99726.12;;;6.33;76.80
61488;BME280;47351;53.326;-6.298;2022-12-20T09:37:56;99727.99;;;6.34;76.73
61488;BME280;47351;53.326;-6.298;2022-12-20T09:40:48;99729.21;;;6.37;76.57
61488;BME280;47351;53.326;-6.298;2022-12-20T09:43:39;99725.98;;;6.39;76.43
61488;BME280;47351;53.326;-6.298;2022-12-20T09:46:30;99733.10;;;6.41;76.20
61488;BME280;47351;53.326;-6.298;2022-12-20T09:49:26;99739.50;;;6.44;76.27
61488;BME280;47351;53.326;-6.298;2022-12-20T09:52:22;99736.39;;;6.47;76.09
61488;BME280;47351;53.326;-6.298;2022-12-20T09:55:17;99743.45;;;6.49;76.13
61488;BME280;47351;53.326;-6.298;2022-12-20T09:58:16;99758.98;;;6.55;75.88
61488;BME280;47351;53.326;-6.298;2022-12-20T10:01:15;99766.98;;;6.62;75.61
61488;BME280;47351;53.326;-6.298;2022-12-20T10:04:14;99770.67;;;6.69;75.50
61488;BME280;47351;53.326;-6.298;2022-12-20T10:07:16;99767.14;;;6.72;75.31
61488;BME280;47351;53.326;-6.298;2022-12-20T10:13:36;99774.95;;;6.76;75.25
61488;BME280;47351;53.326;-6.298;2022-12-20T10:16:34;99778.81;;;6.76;75.05
61488;BME280;47351;53.326;-6.298;2022-12-20T10:19:33;99779.88;;;6.78;74.85
61488;BME280;47351;53.326;-6.298;2022-12-20T10:22:29;99792.92;;;6.79;74.40
61488;BME280;47351;53.326;-6.298;2022-12-20T10:25:28;99787.59;;;6.82;73.90
61488;BME280;47351;53.326;-6.298;2022-12-20T10:28:21;99790.86;;;6.88;73.84
61488;BME280;47351;53.326;-6.298;2022-12-20T10:31:15;99798.83;;;6.93;73.40
61488;BME280;47351;53.326;-6.298;2022-12-20T10:34:06;99798.67;;;6.99;73.29
61488;BME280;47351;53.326;-6.298;2022-12-20T10:37:10;99800.08;;;7.04;73.11
61488;BME280;47351;53.326;-6.298;2022-12-20T10:40:02;99802.06;;;7.11;72.89
61488;BME280;47351;53.326;-6.298;2022-12-20T10:42:55;99802.96;;;7.17;72.53
61488;BME280;47351;53.326;-6.298;2022-12-20T10:45:53;99798.71;;;7.24;72.67
61488;BME280;47351;53.326;-6.298;2022-12-20T10:48:45;99801.03;;;7.31;72.60
61488;BME280;47351;53.326;-6.298;2022-12-20T10:51:36;99802.02;;;7.35;72.44
61488;BME280;47351;53.326;-6.298;2022-12-20T10:54:30;99797.80;;;7.38;71.87
61488;BME280;47351;53.326;-6.298;2022-12-20T10:57:21;99805.14;;;7.40;71.64
61488;BME280;47351;53.326;-6.298;2022-12-20T11:00:13;99799.50;;;7.44;71.48
61488;BME280;47351;53.326;-6.298;2022-12-20T11:03:18;99794.72;;;7.49;70.81
61488;BME280;47351;53.326;-6.298;2022-12-20T11:06:14;99785.55;;;7.53;70.88
61488;BME280;47351;53.326;-6.298;2022-12-20T11:09:16;99787.42;;;7.59;70.90
61488;BME280;47351;53.326;-6.298;2022-12-20T11:12:12;99795.98;;;7.66;70.33
61488;BME280;47351;53.326;-6.298;2022-12-20T11:15:10;99793.16;;;7.71;69.54
61488;BME280;47351;53.326;-6.298;2022-12-20T11:18:02;99783.55;;;7.76;69.57
61488;BME280;47351;53.326;-6.298;2022-12-20T11:20:56;99783.24;;;7.82;68.88
61488;BME280;47351;53.326;-6.298;2022-12-20T11:23:53;99781.82;;;7.88;67.76
61488;BME280;47351;53.326;-6.298;2022-12-20T11:26:57;99782.05;;;7.89;67.67
61488;BME280;47351;53.326;-6.298;2022-12-20T11:29:55;99782.20;;;7.92;67.85
61488;BME280;47351;53.326;-6.298;2022-12-20T11:33:01;99783.89;;;7.96;68.00
61488;BME280;47351;53.326;-6.298;2022-12-20T11:35:57;99790.49;;;7.99;67.36
61488;BME280;47351;53.326;-6.298;2022-12-20T11:38:51;99778.86;;;8.03;67.15
61488;BME280;47351;53.326;-6.298;2022-12-20T11:41:49;99780.31;;;8.09;67.43
61488;BME280;47351;53.326;-6.298;2022-12-20T11:44:48;99784.45;;;8.17;67.62
61488;BME280;47351;53.326;-6.298;2022-12-20T11:48:01;99787.97;;;8.27;67.45
61488;BME280;47351;53.326;-6.298;2022-12-20T11:51:00;99787.31;;;8.37;67.21
61488;BME280;47351;53.326;-6.298;2022-12-20T11:53:53;99785.42;;;8.43;66.37
61488;BME280;47351;53.326;-6.298;2022-12-20T11:56:47;99782.54;;;8.48;65.99
61488;BME280;47351;53.326;-6.298;2022-12-20T11:59:41;99776.50;;;9.20;65.38
61488;BME280;47351;53.326;-6.298;2022-12-20T12:02:35;99760.89;;;11.54;62.06
61488;BME280;47351;53.326;-6.298;2022-12-20T12:05:31;99750.31;;;13.67;57.42
61488;BME280;47351;53.326;-6.298;2022-12-20T12:08:26;99745.95;;;15.28;52.56
61488;BME280;47351;53.326;-6.298;2022-12-20T12:11:20;99729.98;;;16.41;49.65
61488;BME280;47351;53.326;-6.298;2022-12-20T12:14:34;99734.52;;;16.82;47.41
61488;BME280;47351;53.326;-6.298;2022-12-20T12:17:27;99733.48;;;17.26;46.46
61488;BME280;47351;53.326;-6.298;2022-12-20T12:20:22;99734.59;;;17.90;46.16
61488;BME280;47351;53.326;-6.298;2022-12-20T12:23:17;99730.73;;;17.69;44.23
61488;BME280;47351;53.326;-6.298;2022-12-20T12:26:11;99725.34;;;16.85;44.44
61488;BME280;47351;53.326;-6.298;2022-12-20T12:29:02;99724.34;;;16.98;45.02
61488;BME280;47351;53.326;-6.298;2022-12-20T12:31:54;99718.60;;;15.98;44.40
61488;BME280;47351;53.326;-6.298;2022-12-20T12:34:50;99718.13;;;14.43;46.31
61488;BME280;47351;53.326;-6.298;2022-12-20T12:37:47;99726.29;;;13.16;48.11
61488;BME280;47351;53.326;-6.298;2022-12-20T12:40:46;99741.11;;;12.26;49.92
61488;BME280;47351;53.326;-6.298;2022-12-20T12:43:46;99743.38;;;11.55;51.49
61488;BME280;47351;53.326;-6.298;2022-12-20T12:46:37;99748.91;;;11.02;52.63
61488;BME280;47351;53.326;-6.298;2022-12-20T12:49:28;99738.66;;;10.61;53.63
61488;BME280;47351;53.326;-6.298;2022-12-20T12:52:27;99741.12;;;10.28;54.40
61488;BME280;47351;53.326;-6.298;2022-12-20T12:55:37;99746.77;;;10.06;55.32
61488;BME280;47351;53.326;-6.298;2022-12-20T12:58:31;99750.35;;;9.91;55.66
61488;BME280;47351;53.326;-6.298;2022-12-20T13:04:28;99740.52;;;9.73;56.46
61488;BME280;47351;53.326;-6.298;2022-12-20T13:07:28;99742.45;;;9.69;56.19
61488;BME280;47351;53.326;-6.298;2022-12-20T13:13:39;99753.71;;;9.52;56.22
61488;BME280;47351;53.326;-6.298;2022-12-20T13:16:29;99749.58;;;9.38;55.33
61488;BME280;47351;53.326;-6.298;2022-12-20T13:19:47;99740.05;;;9.25;55.64
61488;BME280;47351;53.326;-6.298;2022-12-20T13:22:38;99733.95;;;9.14;56.09
61488;BME280;47351;53.326;-6.298;2022-12-20T13:25:29;99743.63;;;9.05;56.68
61488;BME280;47351;53.326;-6.298;2022-12-20T13:31:31;99746.95;;;8.89;56.55
61488;BME280;47351;53.326;-6.298;2022-12-20T13:34:42;99747.99;;;8.81;56.95
61488;BME280;47351;53.326;-6.298;2022-12-20T13:37:51;99750.05;;;8.75;57.42
61488;BME280;47351;53.326;-6.298;2022-12-20T13:40:43;99746.34;;;8.70;57.85
61488;BME280;47351;53.326;-6.298;2022-12-20T13:43:35;99739.52;;;8.66;58.30
61488;BME280;47351;53.326;-6.298;2022-12-20T13:46:29;99746.97;;;8.61;58.27
61488;BME280;47351;53.326;-6.298;2022-12-20T13:49:25;99746.08;;;8.56;58.76
61488;BME280;47351;53.326;-6.298;2022-12-20T13:52:18;99748.71;;;8.53;59.11
61488;BME280;47351;53.326;-6.298;2022-12-20T13:55:16;99751.99;;;8.49;58.95
61488;BME280;47351;53.326;-6.298;2022-12-20T13:58:09;99744.29;;;8.44;59.04
61488;BME280;47351;53.326;-6.298;2022-12-20T14:01:04;99741.17;;;8.38;59.31
61488;BME280;47351;53.326;-6.298;2022-12-20T14:03:55;99749.86;;;8.33;59.08
61488;BME280;47351;53.326;-6.298;2022-12-20T14:06:50;99738.27;;;8.28;59.43
61488;BME280;47351;53.326;-6.298;2022-12-20T14:09:44;99739.08;;;8.24;59.59
61488;BME280;47351;53.326;-6.298;2022-12-20T14:12:34;99751.13;;;8.20;59.24
61488;BME280;47351;53.326;-6.298;2022-12-20T14:15:26;99745.20;;;8.15;59.19
61488;BME280;47351;53.326;-6.298;2022-12-20T14:18:17;99751.36;;;8.11;58.82
61488;BME280;47351;53.326;-6.298;2022-12-20T14:21:09;99756.08;;;8.06;59.12
61488;BME280;47351;53.326;-6.298;2022-12-20T14:24:00;99760.09;;;8.03;58.47
61488;BME280;47351;53.326;-6.298;2022-12-20T14:26:51;99756.21;;;7.99;58.51
61488;BME280;47351;53.326;-6.298;2022-12-20T14:29:43;99762.29;;;7.95;58.67
61488;BME280;47351;53.326;-6.298;2022-12-20T14:32:34;99752.54;;;7.92;59.08
61488;BME280;47351;53.326;-6.298;2022-12-20T14:35:25;99763.09;;;7.87;58.89
61488;BME280;47351;53.326;-6.298;2022-12-20T14:38:20;99751.60;;;7.82;59.08
61488;BME280;47351;53.326;-6.298;2022-12-20T14:44:16;99756.64;;;7.73;59.62
61488;BME280;47351;53.326;-6.298;2022-12-20T14:47:12;99761.42;;;7.70;59.94
61488;BME280;47351;53.326;-6.298;2022-12-20T14:50:12;99763.21;;;7.66;60.23
61488;BME280;47351;53.326;-6.298;2022-12-20T14:53:10;99763.50;;;7.62;60.44
61488;BME280;47351;53.326;-6.298;2022-12-20T14:56:11;99775.48;;;7.58;60.42
61488;BME280;47351;53.326;-6.298;2022-12-20T14:59:12;99781.86;;;7.55;60.65
61488;BME280;47351;53.326;-6.298;2022-12-20T15:05:08;99786.55;;;7.47;61.11
61488;BME280;47351;53.326;-6.298;2022-12-20T15:08:21;99790.70;;;7.43;61.36
61488;BME280;47351;53.326;-6.298;2022-12-20T15:11:16;99786.03;;;7.39;61.49
61488;BME280;47351;53.326;-6.298;2022-12-20T15:14:17;99791.40;;;7.34;61.72
61488;BME280;47351;53.326;-6.298;2022-12-20T15:17:11;99800.64;;;7.31;61.94
61488;BME280;47351;53.326;-6.298;2022-12-20T15:20:02;99806.41;;;7.27;62.15
61488;BME280;47351;53.326;-6.298;2022-12-20T15:22:53;99813.21;;;7.23;62.28
61488;BME280;47351;53.326;-6.298;2022-12-20T15:25:43;99818.52;;;7.20;62.62
61488;BME280;47351;53.326;-6.298;2022-12-20T15:28:35;99814.14;;;7.16;62.94
61488;BME280;47351;53.326;-6.298;2022-12-20T15:31:26;99809.91;;;7.12;63.28
61488;BME280;47351;53.326;-6.298;2022-12-20T15:34:22;99811.80;;;7.07;63.67
61488;BME280;47351;53.326;-6.298;2022-12-20T15:37:15;99812.92;;;7.02;63.94
61488;BME280;47351;53.326;-6.298;2022-12-20T15:40:11;99815.58;;;6.96;64.31
61488;BME280;47351;53.326;-6.298;2022-12-20T15:43:02;99808.20;;;6.90;64.55